sensor_id;sensor_type;location;lat;lon;timestamp;pressure;altitude;pressure_sealevel;temperature;humidity
80629;BME280;69983;42.370;-71.210;2024-02-14T00:00:48;100263.31;;;21.32;39.09
80629;BME280;69983;42.370;-71.210;2024-02-14T00:02:48;100268.12;;;21.29;39.12
80629;BME280;69983;42.370;-71.210;2024-02-14T00:04:49;100269.67;;;21.34;39.01
80629;BME280;69983;42.370;-71.210;2024-02-14T00:06:49;100269.71;;;21.27;38.97
80629;BME280;69983;42.370;-71.210;2024-02-14T00:08:50;100271.69;;;21.40;39.04
80629;BME280;69983;42.370;-71.210;2024-02-14T00:10:50;100270.00;;;21.17;39.00
80629;BME280;69983;42.370;-71.210;2024-02-14T00:12:51;100273.00;;;21.25;38.77
80629;BME280;69983;42.370;-71.210;2024-02-14T00:14:51;100272.29;;;21.31;38.68
80629;BME280;69983;42.370;-71.210;2024-02-14T00:16:52;100270.87;;;20.48;40.05
80629;BME280;69983;42.370;-71.210;2024-02-14T00:18:52;100272.40;;;20.86;39.26
80629;BME280;69983;42.370;-71.210;2024-02-14T00:20:55;100273.50;;;21.06;38.97
80629;BME280;69983;42.370;-71.210;2024-02-14T00:22:53;100276.93;;;21.23;38.65
80629;BME280;69983;42.370;-71.210;2024-02-14T00:24:58;100276.61;;;21.12;38.70
80629;BME280;69983;42.370;-71.210;2024-02-14T00:26:54;100279.82;;;21.15;38.61
80629;BME280;69983;42.370;-71.210;2024-02-14T00:28:54;100281.54;;;21.10;38.72
80629;BME280;69983;42.370;-71.210;2024-02-14T00:30:55;100275.50;;;21.15;38.59
80629;BME280;69983;42.370;-71.210;2024-02-14T00:32:56;100264.95;;;21.38;38.54
80629;BME280;69983;42.370;-71.210;2024-02-14T00:34:56;100262.25;;;21.22;38.38
80629;BME280;69983;42.370;-71.210;2024-02-14T00:36:56;100265.68;;;21.23;38.31
80629;BME280;69983;42.370;-71.210;2024-02-14T00:38:57;100269.86;;;21.13;38.42
80629;BME280;69983;42.370;-71.210;2024-02-14T00:41:00;100270.25;;;21.17;38.33
80629;BME280;69983;42.370;-71.210;2024-02-14T00:42:58;100272.76;;;21.12;38.32
80629;BME280;69983;42.370;-71.210;2024-02-14T00:44:58;100269.54;;;21.03;39.03
80629;BME280;69983;42.370;-71.210;2024-02-14T00:46:59;100271.26;;;21.07;39.02
80629;BME280;69983;42.370;-71.210;2024-02-14T00:48:59;100272.74;;;21.40;38.20
80629;BME280;69983;42.370;-71.210;2024-02-14T00:51:00;100279.12;;;21.36;37.89
80629;BME280;69983;42.370;-71.210;2024-02-14T00:52:59;100281.06;;;21.34;37.90
80629;BME280;69983;42.370;-71.210;2024-02-14T00:54:59;100283.20;;;21.35;37.78
80629;BME280;69983;42.370;-71.210;2024-02-14T00:57:00;100280.75;;;21.51;37.55
80629;BME280;69983;42.370;-71.210;2024-02-14T00:59:00;100283.61;;;21.24;37.83
80629;BME280;69983;42.370;-71.210;2024-02-14T01:01:01;100283.47;;;21.46;37.49
80629;BME280;69983;42.370;-71.210;2024-02-14T01:03:01;100286.13;;;21.33;37.63
80629;BME280;69983;42.370;-71.210;2024-02-14T01:05:02;100287.00;;;21.45;37.44
80629;BME280;69983;42.370;-71.210;2024-02-14T01:07:02;100287.78;;;21.13;37.79
80629;BME280;69983;42.370;-71.210;2024-02-14T01:09:02;100288.24;;;21.23;37.65
80629;BME280;69983;42.370;-71.210;2024-02-14T01:11:04;100291.85;;;21.26;37.54
80629;BME280;69983;42.370;-71.210;2024-02-14T01:13:03;100293.36;;;21.35;37.39
80629;BME280;69983;42.370;-71.210;2024-02-14T01:15:05;100293.48;;;21.22;37.53
80629;BME280;69983;42.370;-71.210;2024-02-14T01:17:04;100293.16;;;20.72;38.53
80629;BME280;69983;42.370;-71.210;2024-02-14T01:19:05;100293.44;;;21.13;37.71
80629;BME280;69983;42.370;-71.210;2024-02-14T01:21:07;100298.42;;;21.38;37.36
80629;BME280;69983;42.370;-71.210;2024-02-14T01:23:06;100297.41;;;21.32;37.37
80629;BME280;69983;42.370;-71.210;2024-02-14T01:25:07;100298.14;;;21.44;37.22
80629;BME280;69983;42.370;-71.210;2024-02-14T01:27:07;100299.45;;;21.72;36.86
80629;BME280;69983;42.370;-71.210;2024-02-14T01:29:07;100300.28;;;21.49;37.05
80629;BME280;69983;42.370;-71.210;2024-02-14T01:31:13;100301.32;;;21.50;37.03
80629;BME280;69983;42.370;-71.210;2024-02-14T01:33:09;100301.37;;;21.24;37.03
80629;BME280;69983;42.370;-71.210;2024-02-14T01:35:09;100303.74;;;21.14;37.05
80629;BME280;69983;42.370;-71.210;2024-02-14T01:37:10;100305.84;;;21.29;36.50
80629;BME280;69983;42.370;-71.210;2024-02-14T01:39:09;100306.31;;;21.21;36.90
80629;BME280;69983;42.370;-71.210;2024-02-14T01:41:10;100307.86;;;20.66;37.91
80629;BME280;69983;42.370;-71.210;2024-02-14T01:43:11;100307.39;;;20.31;37.83
80629;BME280;69983;42.370;-71.210;2024-02-14T01:45:16;100308.24;;;20.97;37.27
80629;BME280;69983;42.370;-71.210;2024-02-14T01:47:11;100310.52;;;21.47;36.86
80629;BME280;69983;42.370;-71.210;2024-02-14T01:49:11;100306.90;;;21.68;36.59
80629;BME280;69983;42.370;-71.210;2024-02-14T01:51:16;100306.33;;;21.66;36.61
80629;BME280;69983;42.370;-71.210;2024-02-14T01:53:12;100311.74;;;21.60;36.42
80629;BME280;69983;42.370;-71.210;2024-02-14T01:55:13;100309.86;;;21.57;36.70
80629;BME280;69983;42.370;-71.210;2024-02-14T01:57:13;100306.18;;;21.32;36.67
80629;BME280;69983;42.370;-71.210;2024-02-14T01:59:13;100307.90;;;21.50;36.48
80629;BME280;69983;42.370;-71.210;2024-02-14T02:01:20;100308.12;;;21.61;36.64
80629;BME280;69983;42.370;-71.210;2024-02-14T02:03:14;100308.03;;;21.41;36.56
80629;BME280;69983;42.370;-71.210;2024-02-14T02:05:14;100310.94;;;21.59;36.65
80629;BME280;69983;42.370;-71.210;2024-02-14T02:07:15;100313.02;;;20.55;37.88
80629;BME280;69983;42.370;-71.210;2024-02-14T02:09:15;100313.77;;;20.93;37.11
80629;BME280;69983;42.370;-71.210;2024-02-14T02:11:16;100318.30;;;21.48;36.75
80629;BME280;69983;42.370;-71.210;2024-02-14T02:13:17;100314.64;;;21.60;36.58
80629;BME280;69983;42.370;-71.210;2024-02-14T02:15:17;100316.02;;;21.73;36.38
80629;BME280;69983;42.370;-71.210;2024-02-14T02:17:18;100318.06;;;21.70;36.39
80629;BME280;69983;42.370;-71.210;2024-02-14T02:19:18;100317.44;;;21.42;36.38
80629;BME280;69983;42.370;-71.210;2024-02-14T02:21:19;100311.83;;;21.29;36.75
80629;BME280;69983;42.370;-71.210;2024-02-14T02:23:19;100311.80;;;20.91;37.27
80629;BME280;69983;42.370;-71.210;2024-02-14T02:25:19;100312.28;;;21.74;36.22
80629;BME280;69983;42.370;-71.210;2024-02-14T02:27:20;100308.80;;;21.44;36.27
80629;BME280;69983;42.370;-71.210;2024-02-14T02:29:21;100309.46;;;21.85;36.02
80629;BME280;69983;42.370;-71.210;2024-02-14T02:31:21;100309.29;;;21.96;35.84
80629;BME280;69983;42.370;-71.210;2024-02-14T02:33:22;100312.31;;;21.82;36.00
80629;BME280;69983;42.370;-71.210;2024-02-14T02:35:22;100310.28;;;21.52;36.27
80629;BME280;69983;42.370;-71.210;2024-02-14T02:37:23;100308.84;;;22.01;35.59
80629;BME280;69983;42.370;-71.210;2024-02-14T02:39:23;100310.03;;;21.98;35.60
80629;BME280;69983;42.370;-71.210;2024-02-14T02:41:24;100312.97;;;21.54;35.79
80629;BME280;69983;42.370;-71.210;2024-02-14T02:43:24;100313.35;;;21.74;35.89
80629;BME280;69983;42.370;-71.210;2024-02-14T02:45:25;100314.81;;;21.81;36.01
80629;BME280;69983;42.370;-71.210;2024-02-14T02:47:25;100313.04;;;21.44;36.03
80629;BME280;69983;42.370;-71.210;2024-02-14T02:49:26;100315.93;;;21.58;36.12
80629;BME280;69983;42.370;-71.210;2024-02-14T02:51:26;100315.30;;;21.52;36.07
80629;BME280;69983;42.370;-71.210;2024-02-14T02:53:27;100316.22;;;21.60;35.91
80629;BME280;69983;42.370;-71.210;2024-02-14T02:55:27;100314.32;;;20.77;36.92
80629;BME280;69983;42.370;-71.210;2024-02-14T02:57:27;100314.00;;;21.22;36.41
80629;BME280;69983;42.370;-71.210;2024-02-14T02:59:28;100316.40;;;21.68;35.88
80629;BME280;69983;42.370;-71.210;2024-02-14T03:01:29;100321.08;;;21.79;35.78
80629;BME280;69983;42.370;-71.210;2024-02-14T03:03:32;100316.48;;;21.89;35.57
80629;BME280;69983;42.370;-71.210;2024-02-14T03:05:29;100317.36;;;21.49;35.77
80629;BME280;69983;42.370;-71.210;2024-02-14T03:07:30;100322.23;;;21.52;35.76
80629;BME280;69983;42.370;-71.210;2024-02-14T03:09:30;100323.73;;;21.73;35.77
80629;BME280;69983;42.370;-71.210;2024-02-14T03:11:30;100323.19;;;21.64;35.92
80629;BME280;69983;42.370;-71.210;2024-02-14T03:13:30;100324.61;;;21.79;35.78
80629;BME280;69983;42.370;-71.210;2024-02-14T03:15:31;100324.92;;;21.67;35.81
80629;BME280;69983;42.370;-71.210;2024-02-14T03:17:31;100323.35;;;21.80;35.66
80629;BME280;69983;42.370;-71.210;2024-02-14T03:19:32;100324.77;;;21.54;35.94
80629;BME280;69983;42.370;-71.210;2024-02-14T03:21:32;100324.91;;;21.63;35.80
80629;BME280;69983;42.370;-71.210;2024-02-14T03:23:35;100328.98;;;21.70;35.71
80629;BME280;69983;42.370;-71.210;2024-02-14T03:25:32;100328.78;;;20.89;36.79
80629;BME280;69983;42.370;-71.210;2024-02-14T03:27:33;100329.02;;;21.46;36.13
80629;BME280;69983;42.370;-71.210;2024-02-14T03:29:39;100330.15;;;21.44;35.74
80629;BME280;69983;42.370;-71.210;2024-02-14T03:31:34;100328.53;;;21.72;35.69
80629;BME280;69983;42.370;-71.210;2024-02-14T03:33:35;100328.63;;;21.74;35.66
80629;BME280;69983;42.370;-71.210;2024-02-14T03:35:35;100330.74;;;22.00;35.37
80629;BME280;69983;42.370;-71.210;2024-02-14T03:37:35;100330.64;;;21.62;35.48
80629;BME280;69983;42.370;-71.210;2024-02-14T03:39:38;100331.79;;;21.55;35.52
80629;BME280;69983;42.370;-71.210;2024-02-14T03:41:37;100330.75;;;21.77;35.51
80629;BME280;69983;42.370;-71.210;2024-02-14T03:43:37;100331.03;;;21.59;35.35
80629;BME280;69983;42.370;-71.210;2024-02-14T03:45:38;100331.77;;;22.02;35.06
80629;BME280;69983;42.370;-71.210;2024-02-14T03:47:38;100333.19;;;21.71;35.26
80629;BME280;69983;42.370;-71.210;2024-02-14T03:49:40;100333.32;;;21.98;35.06
80629;BME280;69983;42.370;-71.210;2024-02-14T03:51:39;100340.81;;;22.02;35.18
80629;BME280;69983;42.370;-71.210;2024-02-14T03:53:39;100342.70;;;21.68;35.08
80629;BME280;69983;42.370;-71.210;2024-02-14T03:55:40;100344.37;;;21.51;35.55
80629;BME280;69983;42.370;-71.210;2024-02-14T03:57:39;100348.77;;;21.66;35.14
80629;BME280;69983;42.370;-71.210;2024-02-14T03:59:41;100347.15;;;21.70;35.00
80629;BME280;69983;42.370;-71.210;2024-02-14T04:01:44;100349.11;;;21.46;35.31
80629;BME280;69983;42.370;-71.210;2024-02-14T04:03:41;100352.83;;;21.88;35.15
80629;BME280;69983;42.370;-71.210;2024-02-14T04:05:45;100354.28;;;21.71;35.36
80629;BME280;69983;42.370;-71.210;2024-02-14T04:07:42;100353.07;;;21.34;35.83
80629;BME280;69983;42.370;-71.210;2024-02-14T04:09:43;100356.06;;;21.47;35.33
80629;BME280;69983;42.370;-71.210;2024-02-14T04:11:44;100350.03;;;21.56;35.48
80629;BME280;69983;42.370;-71.210;2024-02-14T04:13:48;100353.41;;;21.51;35.32
80629;BME280;69983;42.370;-71.210;2024-02-14T04:15:44;100356.04;;;21.41;35.36
80629;BME280;69983;42.370;-71.210;2024-02-14T04:17:45;100355.49;;;21.65;35.37
80629;BME280;69983;42.370;-71.210;2024-02-14T04:19:45;100360.73;;;21.94;35.06
80629;BME280;69983;42.370;-71.210;2024-02-14T04:21:46;100356.70;;;21.61;35.38
80629;BME280;69983;42.370;-71.210;2024-02-14T04:23:48;100358.77;;;21.61;35.13
80629;BME280;69983;42.370;-71.210;2024-02-14T04:25:47;100360.00;;;22.16;34.53
80629;BME280;69983;42.370;-71.210;2024-02-14T04:27:48;100357.10;;;21.45;35.08
80629;BME280;69983;42.370;-71.210;2024-02-14T04:29:48;100359.54;;;21.86;34.60
80629;BME280;69983;42.370;-71.210;2024-02-14T04:31:49;100359.69;;;22.02;34.65
80629;BME280;69983;42.370;-71.210;2024-02-14T04:33:49;100366.14;;;22.02;34.93
80629;BME280;69983;42.370;-71.210;2024-02-14T04:35:49;100365.63;;;22.09;34.64
80629;BME280;69983;42.370;-71.210;2024-02-14T04:37:52;100369.33;;;22.20;34.71
80629;BME280;69983;42.370;-71.210;2024-02-14T04:39:51;100371.39;;;22.02;34.93
80629;BME280;69983;42.370;-71.210;2024-02-14T04:41:52;100372.40;;;21.94;34.81
80629;BME280;69983;42.370;-71.210;2024-02-14T04:43:51;100376.05;;;22.41;34.56
80629;BME280;69983;42.370;-71.210;2024-02-14T04:45:52;100377.17;;;21.69;35.07
80629;BME280;69983;42.370;-71.210;2024-02-14T04:47:53;100378.77;;;21.43;35.40
80629;BME280;69983;42.370;-71.210;2024-02-14T04:49:54;100378.86;;;21.80;34.93
80629;BME280;69983;42.370;-71.210;2024-02-14T04:51:55;100379.36;;;21.71;34.77
80629;BME280;69983;42.370;-71.210;2024-02-14T04:53:55;100379.88;;;22.07;34.92
80629;BME280;69983;42.370;-71.210;2024-02-14T04:55:57;100379.76;;;21.97;34.52
80629;BME280;69983;42.370;-71.210;2024-02-14T04:57:56;100376.59;;;21.44;35.35
80629;BME280;69983;42.370;-71.210;2024-02-14T04:59:56;100375.52;;;21.67;35.10
80629;BME280;69983;42.370;-71.210;2024-02-14T05:01:57;100382.66;;;22.15;34.58
80629;BME280;69983;42.370;-71.210;2024-02-14T05:03:59;100380.26;;;21.99;34.70
80629;BME280;69983;42.370;-71.210;2024-02-14T05:05:58;100382.52;;;22.43;34.52
80629;BME280;69983;42.370;-71.210;2024-02-14T05:07:58;100381.71;;;22.38;34.58
80629;BME280;69983;42.370;-71.210;2024-02-14T05:09:59;100382.73;;;22.06;34.64
80629;BME280;69983;42.370;-71.210;2024-02-14T05:12:05;100383.51;;;22.32;34.63
80629;BME280;69983;42.370;-71.210;2024-02-14T05:14:02;100380.00;;;22.40;34.48
80629;BME280;69983;42.370;-71.210;2024-02-14T05:16:04;100377.96;;;22.13;34.56
80629;BME280;69983;42.370;-71.210;2024-02-14T05:18:02;100373.36;;;22.53;34.38
80629;BME280;69983;42.370;-71.210;2024-02-14T05:20:03;100371.56;;;22.19;34.73
80629;BME280;69983;42.370;-71.210;2024-02-14T05:22:03;100373.09;;;22.35;34.29
80629;BME280;69983;42.370;-71.210;2024-02-14T05:24:07;100372.20;;;22.24;34.41
80629;BME280;69983;42.370;-71.210;2024-02-14T05:26:05;100376.16;;;22.25;34.39
80629;BME280;69983;42.370;-71.210;2024-02-14T05:28:05;100376.19;;;21.55;34.87
80629;BME280;69983;42.370;-71.210;2024-02-14T05:30:06;100384.59;;;22.29;34.04
80629;BME280;69983;42.370;-71.210;2024-02-14T05:32:06;100382.16;;;22.11;34.27
80629;BME280;69983;42.370;-71.210;2024-02-14T05:34:09;100383.02;;;22.16;34.42
80629;BME280;69983;42.370;-71.210;2024-02-14T05:36:07;100382.64;;;22.24;34.32
80629;BME280;69983;42.370;-71.210;2024-02-14T05:38:07;100381.44;;;22.22;34.00
80629;BME280;69983;42.370;-71.210;2024-02-14T05:40:10;100380.34;;;22.95;33.40
80629;BME280;69983;42.370;-71.210;2024-02-14T05:42:08;100382.57;;;23.15;33.43
80629;BME280;69983;42.370;-71.210;2024-02-14T05:44:09;100380.81;;;22.33;34.06
80629;BME280;69983;42.370;-71.210;2024-02-14T05:46:09;100386.04;;;22.14;34.33
80629;BME280;69983;42.370;-71.210;2024-02-14T05:48:10;100389.08;;;22.50;33.96
80629;BME280;69983;42.370;-71.210;2024-02-14T05:50:09;100391.80;;;22.45;34.02
80629;BME280;69983;42.370;-71.210;2024-02-14T05:52:11;100394.31;;;22.21;34.26
80629;BME280;69983;42.370;-71.210;2024-02-14T05:54:10;100392.23;;;22.17;34.03
80629;BME280;69983;42.370;-71.210;2024-02-14T05:56:11;100396.80;;;22.21;33.96
80629;BME280;69983;42.370;-71.210;2024-02-14T05:58:11;100396.28;;;22.35;34.06
80629;BME280;69983;42.370;-71.210;2024-02-14T06:00:13;100391.52;;;22.44;33.96
80629;BME280;69983;42.370;-71.210;2024-02-14T06:02:12;100390.90;;;22.52;33.54
80629;BME280;69983;42.370;-71.210;2024-02-14T06:04:13;100391.76;;;21.96;34.17
80629;BME280;69983;42.370;-71.210;2024-02-14T06:06:13;100391.24;;;22.07;34.08
80629;BME280;69983;42.370;-71.210;2024-02-14T06:08:14;100392.66;;;22.06;34.09
80629;BME280;69983;42.370;-71.210;2024-02-14T06:10:14;100391.97;;;22.41;34.21
80629;BME280;69983;42.370;-71.210;2024-02-14T06:12:14;100393.53;;;22.00;34.41
80629;BME280;69983;42.370;-71.210;2024-02-14T06:14:16;100394.75;;;21.84;34.54
80629;BME280;69983;42.370;-71.210;2024-02-14T06:16:15;100398.65;;;21.96;34.17
80629;BME280;69983;42.370;-71.210;2024-02-14T06:18:16;100399.51;;;22.18;34.18
80629;BME280;69983;42.370;-71.210;2024-02-14T06:20:16;100398.68;;;21.99;34.39
80629;BME280;69983;42.370;-71.210;2024-02-14T06:22:17;100397.76;;;21.94;34.47
80629;BME280;69983;42.370;-71.210;2024-02-14T06:24:18;100394.39;;;21.91;34.61
80629;BME280;69983;42.370;-71.210;2024-02-14T06:26:17;100391.66;;;21.60;34.92
80629;BME280;69983;42.370;-71.210;2024-02-14T06:28:17;100387.65;;;21.94;34.78
80629;BME280;69983;42.370;-71.210;2024-02-14T06:30:18;100385.08;;;21.65;34.81
80629;BME280;69983;42.370;-71.210;2024-02-14T06:32:18;100381.12;;;21.93;34.51
80629;BME280;69983;42.370;-71.210;2024-02-14T06:34:20;100381.55;;;22.15;34.41
80629;BME280;69983;42.370;-71.210;2024-02-14T06:36:19;100386.99;;;22.09;34.15
80629;BME280;69983;42.370;-71.210;2024-02-14T06:38:19;100391.49;;;21.77;34.47
80629;BME280;69983;42.370;-71.210;2024-02-14T06:40:21;100395.38;;;22.02;34.44
80629;BME280;69983;42.370;-71.210;2024-02-14T06:42:22;100399.57;;;21.48;35.08
80629;BME280;69983;42.370;-71.210;2024-02-14T06:44:23;100402.56;;;20.95;35.86
80629;BME280;69983;42.370;-71.210;2024-02-14T06:46:22;100400.54;;;22.15;34.47
80629;BME280;69983;42.370;-71.210;2024-02-14T06:48:23;100399.45;;;21.70;34.66
80629;BME280;69983;42.370;-71.210;2024-02-14T06:50:23;100401.25;;;21.80;34.60
80629;BME280;69983;42.370;-71.210;2024-02-14T06:52:24;100403.18;;;21.83;34.56
80629;BME280;69983;42.370;-71.210;2024-02-14T06:54:24;100404.78;;;22.00;34.36
80629;BME280;69983;42.370;-71.210;2024-02-14T06:56:25;100404.11;;;21.87;34.50
80629;BME280;69983;42.370;-71.210;2024-02-14T06:58:25;100407.49;;;21.90;34.76
80629;BME280;69983;42.370;-71.210;2024-02-14T07:00:25;100411.69;;;22.01;34.65
80629;BME280;69983;42.370;-71.210;2024-02-14T07:02:26;100407.77;;;21.76;34.65
80629;BME280;69983;42.370;-71.210;2024-02-14T07:04:27;100407.23;;;21.59;34.84
80629;BME280;69983;42.370;-71.210;2024-02-14T07:06:27;100403.28;;;21.84;34.81
80629;BME280;69983;42.370;-71.210;2024-02-14T07:08:29;100404.69;;;21.84;34.79
80629;BME280;69983;42.370;-71.210;2024-02-14T07:10:29;100405.05;;;21.78;34.86
80629;BME280;69983;42.370;-71.210;2024-02-14T07:12:29;100407.13;;;22.21;34.30
80629;BME280;69983;42.370;-71.210;2024-02-14T07:14:30;100406.31;;;21.58;34.71
80629;BME280;69983;42.370;-71.210;2024-02-14T07:16:29;100402.54;;;21.90;34.64
80629;BME280;69983;42.370;-71.210;2024-02-14T07:18:30;100398.19;;;21.68;34.89
80629;BME280;69983;42.370;-71.210;2024-02-14T07:20:30;100397.05;;;21.67;34.87
80629;BME280;69983;42.370;-71.210;2024-02-14T07:22:32;100397.84;;;20.67;36.23
80629;BME280;69983;42.370;-71.210;2024-02-14T07:24:32;100397.73;;;21.32;35.46
80629;BME280;69983;42.370;-71.210;2024-02-14T07:26:32;100394.08;;;21.51;34.83
80629;BME280;69983;42.370;-71.210;2024-02-14T07:28:32;100391.25;;;21.32;35.04
80629;BME280;69983;42.370;-71.210;2024-02-14T07:30:33;100390.49;;;21.36;34.96
80629;BME280;69983;42.370;-71.210;2024-02-14T07:32:33;100391.23;;;21.58;34.71
80629;BME280;69983;42.370;-71.210;2024-02-14T07:34:40;100388.85;;;21.74;34.82
80629;BME280;69983;42.370;-71.210;2024-02-14T07:36:34;100386.57;;;21.66;34.63
80629;BME280;69983;42.370;-71.210;2024-02-14T07:38:35;100386.13;;;21.67;34.90
80629;BME280;69983;42.370;-71.210;2024-02-14T07:40:35;100383.56;;;21.50;35.13
80629;BME280;69983;42.370;-71.210;2024-02-14T07:42:36;100382.60;;;21.48;34.87
80629;BME280;69983;42.370;-71.210;2024-02-14T07:44:37;100383.82;;;21.50;35.13
80629;BME280;69983;42.370;-71.210;2024-02-14T07:46:37;100383.57;;;21.68;34.91
80629;BME280;69983;42.370;-71.210;2024-02-14T07:48:37;100381.21;;;21.50;35.13
80629;BME280;69983;42.370;-71.210;2024-02-14T07:50:37;100380.51;;;21.67;34.94
80629;BME280;69983;42.370;-71.210;2024-02-14T07:52:42;100375.51;;;21.29;35.11
80629;BME280;69983;42.370;-71.210;2024-02-14T07:54:38;100377.88;;;21.69;34.94
80629;BME280;69983;42.370;-71.210;2024-02-14T07:56:39;100375.18;;;21.51;35.17
80629;BME280;69983;42.370;-71.210;2024-02-14T07:58:38;100372.72;;;21.57;35.13
80629;BME280;69983;42.370;-71.210;2024-02-14T08:00:39;100371.40;;;21.39;35.39
80629;BME280;69983;42.370;-71.210;2024-02-14T08:02:40;100365.91;;;21.42;35.37
80629;BME280;69983;42.370;-71.210;2024-02-14T08:04:40;100367.51;;;21.35;35.47
80629;BME280;69983;42.370;-71.210;2024-02-14T08:06:41;100364.80;;;21.31;35.53
80629;BME280;69983;42.370;-71.210;2024-02-14T08:08:41;100362.75;;;21.41;35.41
80629;BME280;69983;42.370;-71.210;2024-02-14T08:10:42;100363.32;;;21.44;35.33
80629;BME280;69983;42.370;-71.210;2024-02-14T08:12:42;100362.87;;;21.38;35.41
80629;BME280;69983;42.370;-71.210;2024-02-14T08:14:42;100360.58;;;21.44;35.33
80629;BME280;69983;42.370;-71.210;2024-02-14T08:16:43;100357.46;;;20.79;36.83
80629;BME280;69983;42.370;-71.210;2024-02-14T08:18:43;100355.64;;;21.13;35.88
80629;BME280;69983;42.370;-71.210;2024-02-14T08:20:44;100350.94;;;21.27;35.61
80629;BME280;69983;42.370;-71.210;2024-02-14T08:22:44;100350.32;;;21.66;35.18
80629;BME280;69983;42.370;-71.210;2024-02-14T08:24:44;100350.44;;;21.74;35.05
80629;BME280;69983;42.370;-71.210;2024-02-14T08:26:46;100348.57;;;21.46;35.40
80629;BME280;69983;42.370;-71.210;2024-02-14T08:28:46;100349.68;;;21.43;35.43
80629;BME280;69983;42.370;-71.210;2024-02-14T08:30:46;100349.30;;;21.36;35.52
80629;BME280;69983;42.370;-71.210;2024-02-14T08:32:53;100344.80;;;21.45;35.37
80629;BME280;69983;42.370;-71.210;2024-02-14T08:34:47;100344.09;;;21.40;35.42
80629;BME280;69983;42.370;-71.210;2024-02-14T08:36:50;100344.46;;;21.62;35.18
80629;BME280;69983;42.370;-71.210;2024-02-14T08:38:48;100346.23;;;21.48;35.35
80629;BME280;69983;42.370;-71.210;2024-02-14T08:40:48;100345.72;;;21.43;35.39
80629;BME280;69983;42.370;-71.210;2024-02-14T08:42:49;100341.10;;;21.30;35.53
80629;BME280;69983;42.370;-71.210;2024-02-14T08:44:49;100342.52;;;21.40;35.42
80629;BME280;69983;42.370;-71.210;2024-02-14T08:46:53;100348.02;;;21.42;35.36
80629;BME280;69983;42.370;-71.210;2024-02-14T08:48:49;100347.48;;;21.25;35.55
80629;BME280;69983;42.370;-71.210;2024-02-14T08:50:50;100350.69;;;20.47;36.56
80629;BME280;69983;42.370;-71.210;2024-02-14T08:52:49;100346.86;;;20.74;36.89
80629;BME280;69983;42.370;-71.210;2024-02-14T08:54:50;100348.52;;;21.48;35.65
80629;BME280;69983;42.370;-71.210;2024-02-14T08:56:50;100345.60;;;21.42;35.41
80629;BME280;69983;42.370;-71.210;2024-02-14T08:58:51;100348.47;;;21.48;35.41
80629;BME280;69983;42.370;-71.210;2024-02-14T09:00:50;100348.50;;;21.40;35.50
80629;BME280;69983;42.370;-71.210;2024-02-14T09:02:50;100350.76;;;21.37;35.56
80629;BME280;69983;42.370;-71.210;2024-02-14T09:04:50;100350.86;;;21.45;35.44
80629;BME280;69983;42.370;-71.210;2024-02-14T09:06:50;100349.75;;;21.37;35.54
80629;BME280;69983;42.370;-71.210;2024-02-14T09:08:51;100348.72;;;21.26;35.65
80629;BME280;69983;42.370;-71.210;2024-02-14T09:10:50;100342.66;;;21.28;35.62
80629;BME280;69983;42.370;-71.210;2024-02-14T09:12:50;100350.52;;;21.54;35.33
80629;BME280;69983;42.370;-71.210;2024-02-14T09:14:50;100351.24;;;21.28;35.60
80629;BME280;69983;42.370;-71.210;2024-02-14T09:16:51;100346.27;;;21.23;35.65
80629;BME280;69983;42.370;-71.210;2024-02-14T09:18:51;100349.60;;;21.26;35.61
80629;BME280;69983;42.370;-71.210;2024-02-14T09:20:51;100351.57;;;21.37;35.42
80629;BME280;69983;42.370;-71.210;2024-02-14T09:22:51;100352.06;;;21.27;35.49
80629;BME280;69983;42.370;-71.210;2024-02-14T09:24:51;100353.02;;;21.20;35.50
80629;BME280;69983;42.370;-71.210;2024-02-14T09:26:51;100349.31;;;21.13;35.58
80629;BME280;69983;42.370;-71.210;2024-02-14T09:28:51;100347.01;;;21.11;35.53
80629;BME280;69983;42.370;-71.210;2024-02-14T09:30:53;100345.89;;;21.50;35.36
80629;BME280;69983;42.370;-71.210;2024-02-14T09:32:51;100346.52;;;21.28;35.25
80629;BME280;69983;42.370;-71.210;2024-02-14T09:34:52;100350.52;;;21.39;35.42
80629;BME280;69983;42.370;-71.210;2024-02-14T09:36:51;100351.12;;;21.04;35.48
80629;BME280;69983;42.370;-71.210;2024-02-14T09:38:52;100353.97;;;21.37;35.37
80629;BME280;69983;42.370;-71.210;2024-02-14T09:40:53;100352.72;;;21.15;35.34
80629;BME280;69983;42.370;-71.210;2024-02-14T09:42:54;100351.90;;;21.23;35.54
80629;BME280;69983;42.370;-71.210;2024-02-14T09:44:53;100348.60;;;21.48;35.51
80629;BME280;69983;42.370;-71.210;2024-02-14T09:46:52;100351.17;;;21.16;35.54
80629;BME280;69983;42.370;-71.210;2024-02-14T09:48:52;100350.36;;;20.48;36.01
80629;BME280;69983;42.370;-71.210;2024-02-14T09:50:53;100346.88;;;19.99;37.30
80629;BME280;69983;42.370;-71.210;2024-02-14T09:52:52;100346.17;;;20.38;36.20
80629;BME280;69983;42.370;-71.210;2024-02-14T09:54:52;100345.90;;;20.80;35.57
80629;BME280;69983;42.370;-71.210;2024-02-14T09:56:53;100346.95;;;21.56;35.16
80629;BME280;69983;42.370;-71.210;2024-02-14T09:58:58;100348.72;;;20.91;35.35
80629;BME280;69983;42.370;-71.210;2024-02-14T10:01:00;100356.05;;;21.07;35.05
80629;BME280;69983;42.370;-71.210;2024-02-14T10:02:52;100353.66;;;21.11;35.21
80629;BME280;69983;42.370;-71.210;2024-02-14T10:04:53;100356.95;;;20.99;35.02
80629;BME280;69983;42.370;-71.210;2024-02-14T10:06:53;100365.54;;;20.42;36.00
80629;BME280;69983;42.370;-71.210;2024-02-14T10:08:53;100370.84;;;20.97;35.72
80629;BME280;69983;42.370;-71.210;2024-02-14T10:10:53;100373.93;;;21.16;34.79
80629;BME280;69983;42.370;-71.210;2024-02-14T10:12:55;100368.95;;;21.21;34.64